Choibalsan, Mongolia
Current Conditions -  °F | °C
As of 4:00 AM on Tuesday 25 Nov 2014 (Local Time) from UIAA Reporting Station
Haze Haze  
Wind Chill: -2°   Ceiling: 20000
Heat Index: -2°   Visibility: 3mi
Dew Point: -6°   Wind: 0mph
Humidity: 85%   Direction: NA
Pressure: 29.56"   Gusts: NA
Location:  48.06°N, 114.51°E
Report Text: UIAA 242000Z 00000MPS 5000 BR SCT100 BKN200 M19/M21 Q1001 NOSIGRMK QFE693 29CLRD70
Loading
Personal Weather Stations






























Interactive Weather Map New forecast layout! Learn more

10-Day Weather Forecast

Advertisements
Track Severe Weather on mobile